KBGM METAR

Date/Time (Local) Flight Rules Wind Clouds Visibility Temperature Dewpoint Altimeter Remarks
05/18 10:53 pm VFR 330° @ 3 kts CLR 10.0sm 18.9°C / 64.4°F 6.1°C / 42.8°F 30.31004
05/18 9:53 pm VFR 360° @ 7 kts CLR 10.0sm 17.8°C / 62.6°F 6.7°C / 42.8°F 30.301182
05/18 8:53 pm VFR 350° @ 7 kts CLR 10.0sm 18.9°C / 64.4°F 6.7°C / 42.8°F 30.280512
05/18 7:53 pm VFR 350° @ 6 kts CLR 10.0sm 21.1°C / 69.8°F 6.1°C / 42.8°F 30.280512
05/18 6:53 pm VFR 340° @ 9 kts CLR 10.0sm 22.8°C / 71.6°F 5.6°C / 41°F 30.280512
05/18 5:53 pm VFR 320° @ 10 kts CLR 10.0sm 23.9°C / 73.4°F 5.0°C / 41°F 30.268702
05/18 4:53 pm VFR 330° @ 11 kts CLR 10.0sm 24.4°C / 75.2°F 5.6°C / 41°F 30.280512
05/18 3:53 pm VFR 300° @ 10 kts CLR 10.0sm 23.9°C / 73.4°F 4.4°C / 39.2°F 30.280512
Show/Hide History...

BGM AFD

.AVIATION /00Z WEDNESDAY THROUGH SUNDAY/...
Persistent high pressure with very dry air will keep things VFR
for all terminals through the next 24 hours and beyond. Small
chance for brief valley fog at KELM around dawn, but being
rather unlikely due to dryness of the air mass it is not
included in the TAF. Surface winds will be variable/calm
overnight and then light west or northwest daytime Wednesday.

Outlook...

Wednesday night through Thursday night...VFR and dry.

Friday through Sunday...Afternoon showers and storms possible
with restrictions if they hit any terminals, otherwise VFR.

Nearby AWOS/ASOS

KBGM: Binghamton 607-729-8335 128.15
KCZG: Tri-Cities 607-785-2926 119.075
N23: Sidney 607-561-2333 118.275
KOIC: Norwich 607-336-8583 119.025
N03: Cortland 607-753-9784 132.225
KAVP: Scranton 570-655-0748 111.6 (VOR)

KBGM TAF

Date/Time (Local) Flight Rules Wind Clouds Visibility (sm)  
05/18 8:00 pm thru 05/18 10:00 pm VFR 320° @ 7 kts SKC >= 6
05/18 10:00 pm thru 05/19 11:00 am FM VFR Variable @ 3 kts FEW 25000 >= 6
05/19 11:00 am thru 05/19 8:00 pm FM VFR 330° @ 7 kts SKC >= 6

KELM METAR

Date/Time (Local) Flight Rules Wind Clouds Visibility Temperature Dewpoint Altimeter Remarks
05/18 10:53 pm VFR Calm CLR 10.0sm 13.9°C / 55.4°F 8.3°C / 46.4°F 30.301182
05/18 9:53 pm VFR Calm CLR 10.0sm 15.0°C / 59°F 8.9°C / 46.4°F 30.28937
05/18 8:53 pm VFR Calm CLR 10.0sm 18.3°C / 64.4°F 8.9°C / 46.4°F 30.268702
05/18 7:53 pm VFR 10° @ 4 kts CLR 10.0sm 22.2°C / 71.6°F 8.3°C / 46.4°F 30.259842
05/18 6:53 pm VFR 20° @ 9 kts FEW 9500 10.0sm 25.0°C / 77°F 7.8°C / 44.6°F 30.259842
05/18 5:53 pm VFR 40° @ 5 kts BKN 9500 10.0sm 27.2°C / 80.6°F 7.2°C / 44.6°F 30.250984
05/18 4:53 pm VFR Variable @ 3 kts BKN 9000 10.0sm 27.2°C / 80.6°F 6.1°C / 42.8°F 30.250984
05/18 3:53 pm VFR 250° @ 9 kts BKN 9500 10.0sm 26.7°C / 78.8°F 6.1°C / 42.8°F 30.259842
Show/Hide History...

KITH METAR

Date/Time (Local) Flight Rules Wind Clouds Visibility Temperature Dewpoint Altimeter Remarks
05/18 10:56 pm SPECI VFR Calm CLR 10.0sm 13.3°C / 55.4°F 10.0°C / 50°F 30.31004
05/18 9:56 pm SPECI VFR Calm CLR 10.0sm 13.9°C / 55.4°F 11.1°C / 51.8°F 30.301182
05/18 8:56 pm VFR Calm CLR 10.0sm 15.6°C / 59°F 11.7°C / 51.8°F 30.28937
05/18 7:56 pm VFR Calm CLR 10.0sm 21.1°C / 69.8°F 8.9°C / 46.4°F 30.280512
05/18 6:56 pm VFR 330° @ 10 kts CLR 10.0sm 23.3°C / 73.4°F 8.3°C / 46.4°F 30.28937
05/18 5:56 pm VFR Calm CLR 10.0sm 24.4°C / 75.2°F 8.3°C / 46.4°F 30.28937
05/18 4:56 pm VFR 310° @ 8 kts CLR 10.0sm 25.0°C / 77°F 8.9°C / 46.4°F 30.280512
05/18 3:56 pm VFR 310° @ 5 - 18 kts CLR 10.0sm 24.4°C / 75.2°F 8.3°C / 46.4°F 30.28937
Show/Hide History...

KAVP METAR

Date/Time (Local) Flight Rules Wind Clouds Visibility Temperature Dewpoint Altimeter Remarks
05/18 10:54 pm VFR 120° @ 5 kts CLR 10.0sm 17.2°C / 62.6°F 7.8°C / 44.6°F 30.28937
05/18 9:54 pm VFR 110° @ 4 kts CLR 10.0sm 17.2°C / 62.6°F 8.9°C / 46.4°F 30.268702
05/18 8:54 pm VFR Calm CLR 10.0sm 18.9°C / 64.4°F 8.3°C / 46.4°F 30.259842
05/18 7:54 pm SPECI VFR 250° @ 3 kts CLR 10.0sm 24.4°C / 75.2°F 7.2°C / 44.6°F 30.250984
05/18 6:54 pm VFR 280° @ 5 kts CLR 10.0sm 26.1°C / 78.8°F 6.7°C / 42.8°F 30.239174
05/18 5:54 pm VFR 270° @ 8 kts CLR 10.0sm 26.1°C / 78.8°F 6.1°C / 42.8°F 30.250984
05/18 4:54 pm VFR 250° @ 6 kts CLR 10.0sm 26.7°C / 78.8°F 6.1°C / 42.8°F 30.250984
05/18 3:54 pm SPECI VFR 250° @ 10 kts FEW 9000 10.0sm 26.1°C / 78.8°F 6.7°C / 42.8°F 30.268702
Show/Hide History...

KSYR METAR

Date/Time (Local) Flight Rules Wind Clouds Visibility Temperature Dewpoint Altimeter Remarks
05/18 10:54 pm VFR Calm FEW 25000 10.0sm 16.7°C / 60.8°F 8.9°C / 46.4°F 30.268702
05/18 9:54 pm VFR Calm FEW 16000 SCT 25000 10.0sm 18.9°C / 64.4°F 8.3°C / 46.4°F 30.259842
05/18 8:54 pm VFR 240° @ 3 kts FEW 16000 SCT 25000 10.0sm 21.1°C / 69.8°F 7.2°C / 44.6°F 30.250984
05/18 7:54 pm SPECI VFR 280° @ 6 kts FEW 16000 BKN 25000 10.0sm 23.3°C / 73.4°F 6.7°C / 42.8°F 30.239174
05/18 6:54 pm VFR 290° @ 7 kts FEW 6000 FEW 16000 BKN 25000 10.0sm 25.0°C / 77°F 6.7°C / 42.8°F 30.250984
05/18 5:54 pm VFR 330° @ 10 kts FEW 6000 FEW 16000 BKN 25000 10.0sm 26.1°C / 78.8°F 5.6°C / 41°F 30.259842
05/18 4:54 pm VFR 320° @ 8 - 16 kts FEW 6000 FEW 16000 FEW 25000 10.0sm 26.1°C / 78.8°F 5.6°C / 41°F 30.259842
05/18 3:54 pm VFR 300° @ 11 kts FEW 6000 FEW 16000 FEW 25000 10.0sm 26.7°C / 78.8°F 6.1°C / 42.8°F 30.268702
Show/Hide History...